Time;durP1;ratioP1;P1;durP2;ratioP2;P2;SDS_P1;SDS_P2;PMS_P1;PMS_P2;Temp;Humidity;BMP_temperature;BMP_pressure;BME280_temperature;BME280_humidity;BME280_pressure;Samples;Min_cycle;Max_cycle;Signal;HPM_P1;HPM_P2
2023/03/14 00:01:23;;;;;;;27.65;4.82;;;;;;;;;;5008821;28;20158;-77
2023/03/14 00:03:50;;;;;;;25.45;4.75;;;;;;;;;;5015874;28;20037;-77
2023/03/14 00:06:16;;;;;;;33.65;5.65;;;;;;;;;;5003836;28;20052;-77
2023/03/14 00:08:43;;;;;;;24.10;5.18;;;;;;;;;;4985268;28;20052;-78
2023/03/14 00:11:10;;;;;;;28.40;5.05;;;;;;;;;;4999033;28;20041;-77
2023/03/14 00:13:36;;;;;;;34.75;6.22;;;;;;;;;;4984867;28;20053;-77
2023/03/14 00:16:07;;;;;;;25.98;4.20;;;;;;;;;;4986705;28;20045;-77
2023/03/14 00:18:33;;;;;;;27.60;5.20;;;;;;;;;;4994440;28;20049;-77
2023/03/14 00:21:00;;;;;;;25.80;4.70;;;;;;;;;;5005308;28;20575;-77
2023/03/14 00:23:28;;;;;;;29.15;5.53;;;;;;;;;;5011413;28;20728;-77
2023/03/14 00:25:54;;;;;;;26.98;4.95;;;;;;;;;;5014372;28;20123;-77
2023/03/14 00:28:20;;;;;;;35.22;7.25;;;;;;;;;;4981420;28;20045;-77
2023/03/14 00:30:46;;;;;;;29.10;5.38;;;;;;;;;;5014142;28;20106;-77
2023/03/14 00:33:12;;;;;;;29.08;4.82;;;;;;;;;;4996378;28;20029;-77
2023/03/14 00:35:38;;;;;;;18.02;4.60;;;;;;;;;;4994434;28;20033;-77
2023/03/14 00:38:04;;;;;;;19.85;4.22;;;;;;;;;;4992189;28;20053;-77
2023/03/14 00:40:30;;;;;;;26.33;5.35;;;;;;;;;;5011191;28;20393;-77
2023/03/14 00:42:56;;;;;;;21.33;4.15;;;;;;;;;;4997852;28;20042;-77
2023/03/14 00:45:22;;;;;;;23.70;4.45;;;;;;;;;;5006516;28;20965;-78
2023/03/14 00:47:48;;;;;;;26.92;4.32;;;;;;;;;;5013492;28;20053;-77
2023/03/14 00:50:14;;;;;;;24.80;5.07;;;;;;;;;;5009570;28;20130;-77
2023/03/14 00:52:41;;;;;;;26.90;4.75;;;;;;;;;;4995685;28;21475;-77
2023/03/14 00:55:07;;;;;;;19.90;4.28;;;;;;;;;;5010736;28;20100;-77
2023/03/14 00:57:33;;;;;;;25.90;4.72;;;;;;;;;;5010605;28;20543;-77
2023/03/14 00:59:59;;;;;;;25.92;4.75;;;;;;;;;;4984037;28;20045;-77
2023/03/14 01:02:25;;;;;;;21.05;3.88;;;;;;;;;;4994744;28;20082;-77
2023/03/14 01:04:51;;;;;;;25.63;4.93;;;;;;;;;;5016616;28;20100;-77
2023/03/14 01:07:17;;;;;;;20.98;4.28;;;;;;;;;;4990296;28;20037;-77
2023/03/14 01:09:43;;;;;;;25.17;4.55;;;;;;;;;;4976940;28;20050;-77
2023/03/14 01:12:09;;;;;;;23.08;4.55;;;;;;;;;;5009881;28;20033;-77
2023/03/14 01:14:36;;;;;;;20.73;4.35;;;;;;;;;;5013470;28;20053;-77
2023/03/14 01:17:02;;;;;;;20.02;4.35;;;;;;;;;;5013484;28;20071;-77
2023/03/14 01:19:29;;;;;;;22.83;4.82;;;;;;;;;;4999553;28;20128;-76
2023/03/14 01:21:55;;;;;;;20.77;4.75;;;;;;;;;;4998422;28;20180;-76
2023/03/14 01:24:21;;;;;;;25.85;4.90;;;;;;;;;;5014218;28;20509;-77
2023/03/14 01:26:47;;;;;;;14.00;3.42;;;;;;;;;;5012942;28;20507;-77
2023/03/14 01:29:13;;;;;;;13.30;3.28;;;;;;;;;;4999330;28;20091;-76
2023/03/14 01:31:39;;;;;;;19.10;3.90;;;;;;;;;;5001587;28;20064;-76
2023/03/14 01:34:05;;;;;;;20.65;3.53;;;;;;;;;;4983876;28;20417;-76
2023/03/14 01:36:31;;;;;;;20.95;4.18;;;;;;;;;;5012739;28;20493;-76
2023/03/14 01:38:57;;;;;;;21.98;4.13;;;;;;;;;;5010869;28;20051;-76
2023/03/14 01:41:25;;;;;;;17.75;3.33;;;;;;;;;;5011021;28;20041;-77
2023/03/14 01:43:52;;;;;;;15.75;3.08;;;;;;;;;;5015213;28;20516;-77
2023/03/14 01:46:18;;;;;;;17.33;3.78;;;;;;;;;;5017251;28;20139;-77
2023/03/14 01:48:54;;;;;;;12.95;3.20;;;;;;;;;;5012742;28;20052;-76
2023/03/14 01:51:36;;;;;;;15.20;3.88;;;;;;;;;;5011701;28;20052;-76
2023/03/14 01:54:08;;;;;;;18.20;3.47;;;;;;;;;;4997017;28;20053;-75
2023/03/14 01:56:35;;;;;;;22.30;3.75;;;;;;;;;;5009151;28;20680;-76
2023/03/14 01:59:03;;;;;;;24.88;4.55;;;;;;;;;;5010510;28;20049;-76
2023/03/14 02:01:29;;;;;;;12.95;3.08;;;;;;;;;;5012867;28;20056;-76
2023/03/14 02:03:58;;;;;;;13.98;2.60;;;;;;;;;;4992893;28;20057;-77
2023/03/14 02:06:26;;;;;;;16.17;2.90;;;;;;;;;;4995779;28;20220;-76
2023/03/14 02:08:52;;;;;;;9.70;2.72;;;;;;;;;;5008987;28;20398;-77
2023/03/14 02:11:19;;;;;;;18.25;3.38;;;;;;;;;;5008884;28;20045;-77
2023/03/14 02:13:45;;;;;;;21.92;2.90;;;;;;;;;;5009508;28;20076;-77
2023/03/14 02:16:11;;;;;;;16.48;3.33;;;;;;;;;;4986038;28;20041;-77
2023/03/14 02:18:40;;;;;;;23.40;4.40;;;;;;;;;;5010340;28;20141;-78
2023/03/14 02:21:09;;;;;;;13.88;3.50;;;;;;;;;;5012107;28;20551;-77
2023/03/14 02:24:00;;;;;;;13.65;3.22;;;;;;;;;;4993215;28;20051;-77
2023/03/14 02:26:36;;;;;;;15.40;2.30;;;;;;;;;;5011376;28;20037;-77
2023/03/14 02:29:02;;;;;;;14.10;2.70;;;;;;;;;;5008126;28;20041;-77
2023/03/14 02:31:28;;;;;;;19.35;3.58;;;;;;;;;;5008683;28;20073;-77
2023/03/14 02:33:55;;;;;;;18.23;4.05;;;;;;;;;;4991776;28;20036;-77
2023/03/14 02:36:21;;;;;;;15.00;3.05;;;;;;;;;;4991547;28;20048;-78
2023/03/14 02:38:50;;;;;;;14.77;3.28;;;;;;;;;;4992370;28;20080;-77
2023/03/14 02:41:17;;;;;;;11.18;2.97;;;;;;;;;;5008358;28;20061;-77
2023/03/14 02:43:43;;;;;;;19.10;3.00;;;;;;;;;;5008195;28;20524;-77
2023/03/14 02:46:13;;;;;;;14.65;3.00;;;;;;;;;;5007959;28;20196;-77
2023/03/14 02:48:45;;;;;;;19.73;3.75;;;;;;;;;;5025306;28;20392;-76
2023/03/14 02:51:12;;;;;;;8.52;2.42;;;;;;;;;;5007364;28;20126;-77
2023/03/14 02:53:39;;;;;;;16.52;2.75;;;;;;;;;;5006291;28;20110;-76
2023/03/14 02:56:05;;;;;;;9.90;1.90;;;;;;;;;;5010878;28;20041;-76
2023/03/14 02:58:32;;;;;;;12.05;3.05;;;;;;;;;;5009563;28;20046;-77
2023/03/14 03:00:58;;;;;;;9.85;2.05;;;;;;;;;;4996268;28;20647;-77
2023/03/14 03:03:24;;;;;;;14.07;2.70;;;;;;;;;;5009082;28;20052;-76
2023/03/14 03:05:51;;;;;;;7.72;1.70;;;;;;;;;;4998576;28;20049;-77
2023/03/14 03:08:18;;;;;;;10.48;2.40;;;;;;;;;;4996281;28;21637;-77
2023/03/14 03:10:44;;;;;;;14.40;2.72;;;;;;;;;;4995660;28;20542;-77
2023/03/14 03:13:10;;;;;;;11.15;2.75;;;;;;;;;;5006612;28;20044;-77
2023/03/14 03:15:36;;;;;;;15.45;3.00;;;;;;;;;;4993359;28;20073;-77
2023/03/14 03:18:02;;;;;;;10.82;2.40;;;;;;;;;;5008685;28;21710;-77
2023/03/14 03:20:28;;;;;;;10.85;3.28;;;;;;;;;;5010464;28;20183;-78
2023/03/14 03:22:54;;;;;;;11.10;2.22;;;;;;;;;;4998124;28;20499;-77
2023/03/14 03:25:20;;;;;;;11.98;2.63;;;;;;;;;;4993817;28;20049;-77
2023/03/14 03:27:46;;;;;;;11.40;2.58;;;;;;;;;;4995406;28;20041;-77
2023/03/14 03:30:13;;;;;;;9.57;2.55;;;;;;;;;;4992756;28;20045;-77
2023/03/14 03:32:39;;;;;;;12.60;2.45;;;;;;;;;;5001228;28;20645;-76
2023/03/14 03:35:05;;;;;;;16.80;3.60;;;;;;;;;;4998602;28;20041;-77
2023/03/14 03:37:32;;;;;;;13.80;3.25;;;;;;;;;;5006811;28;20045;-77
2023/03/14 03:39:58;;;;;;;9.27;2.72;;;;;;;;;;4997651;28;20068;-77
2023/03/14 03:42:24;;;;;;;10.18;3.20;;;;;;;;;;5012208;28;20067;-77
2023/03/14 03:44:50;;;;;;;6.72;1.80;;;;;;;;;;5001598;28;20140;-77
2023/03/14 03:47:17;;;;;;;11.00;3.58;;;;;;;;;;4977262;28;20404;-77
2023/03/14 03:49:43;;;;;;;9.05;2.95;;;;;;;;;;4990265;28;20133;-78
2023/03/14 03:52:09;;;;;;;17.67;3.83;;;;;;;;;;5003794;28;20045;-79
2023/03/14 03:54:35;;;;;;;10.95;2.70;;;;;;;;;;4987539;28;20253;-79
2023/03/14 03:57:01;;;;;;;12.23;4.15;;;;;;;;;;4976841;28;20087;-78
2023/03/14 03:59:27;;;;;;;16.33;4.25;;;;;;;;;;4994969;28;20081;-78
2023/03/14 04:01:53;;;;;;;14.98;4.45;;;;;;;;;;4992626;28;20503;-78
2023/03/14 04:04:20;;;;;;;17.38;4.75;;;;;;;;;;4990489;28;20123;-78
2023/03/14 04:06:46;;;;;;;17.23;5.40;;;;;;;;;;4973782;28;20037;-77
2023/03/14 04:09:12;;;;;;;14.70;4.57;;;;;;;;;;5005711;28;20175;-78
2023/03/14 04:11:38;;;;;;;9.23;2.80;;;;;;;;;;4986912;28;20053;-77
2023/03/14 04:14:05;;;;;;;18.02;4.40;;;;;;;;;;4992295;28;20481;-76
2023/03/14 04:16:31;;;;;;;17.33;4.63;;;;;;;;;;4991597;28;22185;-77
2023/03/14 04:18:57;;;;;;;21.23;5.13;;;;;;;;;;4989286;28;20041;-77
2023/03/14 04:21:24;;;;;;;15.05;4.60;;;;;;;;;;5006819;28;20076;-78
2023/03/14 04:23:50;;;;;;;18.60;5.70;;;;;;;;;;5007721;28;21564;-78
2023/03/14 04:26:17;;;;;;;14.93;3.97;;;;;;;;;;4997421;28;20132;-78
2023/03/14 04:28:43;;;;;;;19.98;5.18;;;;;;;;;;4991663;28;20091;-78
2023/03/14 04:31:10;;;;;;;19.65;5.03;;;;;;;;;;4987310;28;20076;-78
2023/03/14 04:33:37;;;;;;;16.70;4.78;;;;;;;;;;5004073;28;20045;-78
2023/03/14 04:36:03;;;;;;;17.00;4.60;;;;;;;;;;4992361;28;20045;-78
2023/03/14 04:38:29;;;;;;;20.67;4.85;;;;;;;;;;5002124;28;20044;-78
2023/03/14 04:40:55;;;;;;;25.05;6.97;;;;;;;;;;4985399;28;20080;-78
2023/03/14 04:43:22;;;;;;;15.27;3.88;;;;;;;;;;4991189;28;20140;-78
2023/03/14 04:45:48;;;;;;;15.95;4.80;;;;;;;;;;4991780;28;20052;-77
2023/03/14 04:48:14;;;;;;;17.05;5.50;;;;;;;;;;5003077;28;20041;-78
2023/03/14 04:50:40;;;;;;;17.85;4.70;;;;;;;;;;4994767;28;20044;-78
2023/03/14 04:53:06;;;;;;;21.60;5.63;;;;;;;;;;4987909;28;20417;-78
2023/03/14 04:55:33;;;;;;;22.17;8.02;;;;;;;;;;4994414;28;20045;-79
2023/03/14 04:57:59;;;;;;;20.98;7.05;;;;;;;;;;5009656;28;20044;-79
2023/03/14 05:00:25;;;;;;;18.70;7.22;;;;;;;;;;4991696;28;20147;-79
2023/03/14 05:02:51;;;;;;;22.25;7.15;;;;;;;;;;4992325;28;20044;-79
2023/03/14 05:05:18;;;;;;;26.13;9.60;;;;;;;;;;4991683;28;20131;-80
2023/03/14 05:07:44;;;;;;;23.23;8.35;;;;;;;;;;4979745;28;20056;-83
2023/03/14 05:10:10;;;;;;;25.65;8.68;;;;;;;;;;4993153;28;20685;-78
2023/03/14 05:12:36;;;;;;;24.77;8.90;;;;;;;;;;5009141;28;20106;-80
2023/03/14 05:15:04;;;;;;;21.58;7.97;;;;;;;;;;4991613;28;20371;-80
2023/03/14 05:17:30;;;;;;;24.30;8.80;;;;;;;;;;5009943;28;20150;-79
2023/03/14 05:19:56;;;;;;;21.17;8.20;;;;;;;;;;4991885;28;20048;-81
2023/03/14 05:22:22;;;;;;;25.75;9.68;;;;;;;;;;4990176;28;20191;-82
2023/03/14 05:24:48;;;;;;;22.98;9.02;;;;;;;;;;4991584;28;20049;-82
2023/03/14 05:27:14;;;;;;;30.55;10.90;;;;;;;;;;4998088;28;20033;-82
2023/03/14 05:29:40;;;;;;;23.48;10.25;;;;;;;;;;5014641;28;20041;-85
2023/03/14 05:32:07;;;;;;;18.67;8.35;;;;;;;;;;4992423;28;20037;-85
2023/03/14 05:34:33;;;;;;;30.70;10.88;;;;;;;;;;5003306;28;20048;-85
2023/03/14 05:36:59;;;;;;;19.55;8.38;;;;;;;;;;5011795;28;20048;-85
2023/03/14 05:39:25;;;;;;;17.15;7.85;;;;;;;;;;5009939;28;20096;-84
2023/03/14 05:41:53;;;;;;;18.70;8.52;;;;;;;;;;5011387;28;20045;-84
2023/03/14 05:44:19;;;;;;;21.20;7.97;;;;;;;;;;5002011;28;20430;-84
2023/03/14 05:46:46;;;;;;;25.73;9.02;;;;;;;;;;4993421;28;20210;-86
2023/03/14 05:49:12;;;;;;;21.02;8.02;;;;;;;;;;4995566;28;20088;-83
2023/03/14 05:51:38;;;;;;;20.15;8.18;;;;;;;;;;5012995;28;20565;-82
2023/03/14 05:54:04;;;;;;;20.02;7.22;;;;;;;;;;4996593;28;20049;-82
2023/03/14 05:56:30;;;;;;;15.60;6.93;;;;;;;;;;4992646;28;20033;-83
2023/03/14 05:58:56;;;;;;;19.70;6.53;;;;;;;;;;5015364;28;20045;-82
2023/03/14 06:01:22;;;;;;;21.05;9.80;;;;;;;;;;5004167;28;20049;-82
2023/03/14 06:03:48;;;;;;;17.25;7.82;;;;;;;;;;4995683;28;20045;-83
2023/03/14 06:06:16;;;;;;;18.42;7.88;;;;;;;;;;5020197;28;20041;-84
2023/03/14 06:08:42;;;;;;;18.70;7.55;;;;;;;;;;4991521;28;20037;-84
2023/03/14 06:11:09;;;;;;;18.95;6.53;;;;;;;;;;5002652;28;20033;-84
2023/03/14 06:13:35;;;;;;;26.83;8.90;;;;;;;;;;5001966;28;20037;-84
2023/03/14 06:16:01;;;;;;;16.58;8.45;;;;;;;;;;5019782;28;20073;-84
2023/03/14 06:18:27;;;;;;;28.23;9.35;;;;;;;;;;5024793;28;20037;-84
2023/03/14 06:20:55;;;;;;;18.77;7.78;;;;;;;;;;5002936;28;20091;-84
2023/03/14 06:23:21;;;;;;;20.85;8.50;;;;;;;;;;5019708;28;20045;-84
2023/03/14 06:25:47;;;;;;;24.00;8.95;;;;;;;;;;5027545;28;20114;-85
2023/03/14 06:28:13;;;;;;;17.42;7.63;;;;;;;;;;5003000;28;20045;-85
2023/03/14 06:30:39;;;;;;;33.72;8.38;;;;;;;;;;5002061;28;20041;-83
2023/03/14 06:33:05;;;;;;;8.65;3.47;;;;;;;;;;5013326;28;20608;-83
2023/03/14 06:35:32;;;;;;;6.80;2.80;;;;;;;;;;5010503;28;20128;-83
2023/03/14 06:37:58;;;;;;;8.27;2.28;;;;;;;;;;5002807;28;20066;-81
2023/03/14 06:40:24;;;;;;;6.45;1.42;;;;;;;;;;4994391;28;20103;-82
2023/03/14 06:42:50;;;;;;;10.93;1.70;;;;;;;;;;5022975;28;20047;-81
2023/03/14 06:45:16;;;;;;;12.20;1.92;;;;;;;;;;5020661;28;20056;-81
2023/03/14 06:47:45;;;;;;;19.48;2.55;;;;;;;;;;5004157;28;20558;-80
2023/03/14 06:50:12;;;;;;;26.08;3.53;;;;;;;;;;4994549;28;20036;-81
2023/03/14 06:52:41;;;;;;;24.20;2.33;;;;;;;;;;5002211;28;22529;-80
2023/03/14 06:55:07;;;;;;;22.95;2.83;;;;;;;;;;4999844;28;20049;-80
2023/03/14 06:57:34;;;;;;;23.58;2.40;;;;;;;;;;4996832;28;20041;-80
2023/03/14 07:00:00;;;;;;;26.30;3.95;;;;;;;;;;4984624;28;20669;-79
2023/03/14 07:02:28;;;;;;;22.63;2.05;;;;;;;;;;4999982;28;21602;-80
2023/03/14 07:04:54;;;;;;;24.88;2.88;;;;;;;;;;5000257;28;20144;-80
2023/03/14 07:07:20;;;;;;;29.15;3.38;;;;;;;;;;5014951;28;20679;-80
2023/03/14 07:09:46;;;;;;;21.90;2.60;;;;;;;;;;5000609;28;20095;-79
2023/03/14 07:12:13;;;;;;;16.13;1.95;;;;;;;;;;4996619;28;20123;-80
2023/03/14 07:14:39;;;;;;;21.75;2.25;;;;;;;;;;5014333;28;20128;-80
2023/03/14 07:17:05;;;;;;;7.90;1.50;;;;;;;;;;5015782;28;20041;-80
2023/03/14 07:19:31;;;;;;;20.17;2.10;;;;;;;;;;4987038;28;20056;-80
2023/03/14 07:21:57;;;;;;;15.20;1.70;;;;;;;;;;4986940;28;20135;-79
2023/03/14 07:24:23;;;;;;;11.55;1.90;;;;;;;;;;5001167;28;20073;-79
2023/03/14 07:26:49;;;;;;;16.98;1.83;;;;;;;;;;5015277;28;20121;-80
2023/03/14 07:29:15;;;;;;;10.00;1.13;;;;;;;;;;4998131;28;20041;-80
2023/03/14 07:31:42;;;;;;;8.00;0.80;;;;;;;;;;4985123;28;20041;-79
2023/03/14 07:34:08;;;;;;;9.32;0.98;;;;;;;;;;4997480;28;20492;-79
2023/03/14 07:36:34;;;;;;;7.78;1.23;;;;;;;;;;4997805;28;20173;-79
2023/03/14 07:39:00;;;;;;;6.53;1.25;;;;;;;;;;5006642;28;20041;-79
2023/03/14 07:41:26;;;;;;;6.10;0.82;;;;;;;;;;5008190;28;20041;-79
2023/03/14 07:43:52;;;;;;;10.10;1.20;;;;;;;;;;4996988;28;20049;-79
2023/03/14 07:46:18;;;;;;;8.45;0.90;;;;;;;;;;4988626;28;20069;-79
2023/03/14 07:48:45;;;;;;;8.27;0.98;;;;;;;;;;4987898;28;20051;-79
2023/03/14 07:51:11;;;;;;;6.32;1.27;;;;;;;;;;5021209;28;20042;-79
2023/03/14 07:53:39;;;;;;;5.60;1.00;;;;;;;;;;5023469;28;20041;-79
2023/03/14 07:56:05;;;;;;;5.85;1.08;;;;;;;;;;5021551;28;20175;-78
2023/03/14 07:58:31;;;;;;;7.22;0.98;;;;;;;;;;5010897;28;20074;-78
2023/03/14 08:00:59;;;;;;;4.47;1.27;;;;;;;;;;5033611;28;20037;-78
2023/03/14 08:03:25;;;;;;;3.65;0.95;;;;;;;;;;5020850;28;20049;-79
2023/03/14 08:05:51;;;;;;;10.82;1.27;;;;;;;;;;5005307;28;20045;-80
2023/03/14 08:08:18;;;;;;;6.68;1.00;;;;;;;;;;5017526;28;20033;-80
2023/03/14 08:10:44;;;;;;;2.35;0.70;;;;;;;;;;5016008;28;20088;-80
2023/03/14 08:13:11;;;;;;;7.47;1.52;;;;;;;;;;5004140;28;20069;-80
2023/03/14 08:15:37;;;;;;;3.63;0.80;;;;;;;;;;5000926;28;20045;-80
2023/03/14 08:18:03;;;;;;;8.68;1.15;;;;;;;;;;5012592;28;20065;-80
2023/03/14 08:20:29;;;;;;;4.75;1.02;;;;;;;;;;5020065;28;20044;-79
2023/03/14 08:22:58;;;;;;;7.80;1.33;;;;;;;;;;5015658;28;20045;-79
2023/03/14 08:25:25;;;;;;;12.38;1.35;;;;;;;;;;5001644;28;20071;-79
2023/03/14 08:27:51;;;;;;;9.95;1.40;;;;;;;;;;5015877;28;20408;-79
2023/03/14 08:30:18;;;;;;;11.82;2.58;;;;;;;;;;5003403;28;20040;-78
2023/03/14 08:32:44;;;;;;;7.72;1.35;;;;;;;;;;5016268;28;20148;-79
2023/03/14 08:35:11;;;;;;;9.82;1.33;;;;;;;;;;4998753;28;20465;-79
2023/03/14 08:37:37;;;;;;;8.77;1.27;;;;;;;;;;4985403;28;20041;-79
2023/03/14 08:40:06;;;;;;;11.95;1.60;;;;;;;;;;4999848;28;20080;-79
2023/03/14 08:42:33;;;;;;;17.45;1.80;;;;;;;;;;4985028;28;20045;-79
2023/03/14 08:44:59;;;;;;;6.78;1.83;;;;;;;;;;5012507;28;20108;-78
2023/03/14 08:47:25;;;;;;;6.82;1.23;;;;;;;;;;5018021;28;20057;-78
2023/03/14 08:49:51;;;;;;;8.98;1.70;;;;;;;;;;5013770;28;20390;-78
2023/03/14 08:52:17;;;;;;;9.13;1.58;;;;;;;;;;4999817;28;20455;-78
2023/03/14 08:54:47;;;;;;;11.23;1.98;;;;;;;;;;4996504;28;20854;-77
2023/03/14 08:57:13;;;;;;;11.15;1.80;;;;;;;;;;5004421;28;20067;-77
2023/03/14 08:59:39;;;;;;;11.98;1.75;;;;;;;;;;4980532;28;20098;-78
2023/03/14 09:02:06;;;;;;;14.80;2.33;;;;;;;;;;5013224;28;20110;-78
2023/03/14 09:04:32;;;;;;;12.25;1.55;;;;;;;;;;4996301;28;20695;-78
2023/03/14 09:06:59;;;;;;;18.30;2.05;;;;;;;;;;5009534;28;20053;-78
2023/03/14 09:09:30;;;;;;;14.15;2.30;;;;;;;;;;5011933;28;20531;-78
2023/03/14 09:11:56;;;;;;;22.35;3.80;;;;;;;;;;4994524;28;20476;-78
2023/03/14 09:14:22;;;;;;;13.73;2.40;;;;;;;;;;5014444;28;20045;-78
2023/03/14 09:16:49;;;;;;;20.63;2.50;;;;;;;;;;5019579;28;20057;-78
2023/03/14 09:19:15;;;;;;;15.55;3.05;;;;;;;;;;5000348;28;20052;-77
2023/03/14 09:21:41;;;;;;;22.15;3.42;;;;;;;;;;5011203;28;20095;-78
2023/03/14 09:24:07;;;;;;;13.35;2.78;;;;;;;;;;4992163;28;20049;-78
2023/03/14 09:26:33;;;;;;;13.95;2.35;;;;;;;;;;5013065;28;20053;-79
2023/03/14 09:29:00;;;;;;;20.65;3.60;;;;;;;;;;5003390;28;20044;-80
2023/03/14 09:31:27;;;;;;;25.50;2.90;;;;;;;;;;5014514;28;20040;-80
2023/03/14 09:33:53;;;;;;;21.13;3.05;;;;;;;;;;4982738;28;20528;-77
2023/03/14 09:36:19;;;;;;;24.98;3.38;;;;;;;;;;5011551;28;20040;-78
2023/03/14 09:38:45;;;;;;;25.58;3.80;;;;;;;;;;5003991;28;20052;-78
2023/03/14 09:41:23;;;;;;;18.33;2.85;;;;;;;;;;4992906;28;20037;-80
2023/03/14 09:43:54;;;;;;;19.58;3.00;;;;;;;;;;4998670;28;20887;-78
2023/03/14 09:46:22;;;;;;;22.13;3.15;;;;;;;;;;5003676;28;20092;-80
2023/03/14 09:48:48;;;;;;;26.95;3.72;;;;;;;;;;5011042;28;20132;-80
2023/03/14 09:51:17;;;;;;;19.55;2.70;;;;;;;;;;4998464;28;20046;-80
2023/03/14 09:53:44;;;;;;;24.13;4.13;;;;;;;;;;4999834;28;20448;-79
2023/03/14 09:56:16;;;;;;;21.77;3.38;;;;;;;;;;5000543;28;20053;-80
2023/03/14 09:58:44;;;;;;;25.27;3.10;;;;;;;;;;4999189;28;20071;-80
2023/03/14 10:01:13;;;;;;;30.45;4.40;;;;;;;;;;5015189;28;20038;-79
2023/03/14 10:03:41;;;;;;;11.85;2.50;;;;;;;;;;5003839;28;20192;-79
2023/03/14 10:06:14;;;;;;;27.38;4.38;;;;;;;;;;5018291;28;20413;-79
2023/03/14 10:08:41;;;;;;;19.05;3.28;;;;;;;;;;5017943;28;20481;-77
2023/03/14 10:11:10;;;;;;;30.40;3.72;;;;;;;;;;5017567;28;20036;-78
2023/03/14 10:13:47;;;;;;;21.08;3.05;;;;;;;;;;5020657;28;20095;-78
2023/03/14 10:16:14;;;;;;;24.13;3.22;;;;;;;;;;5019401;28;20328;-78
2023/03/14 10:18:45;;;;;;;18.10;2.55;;;;;;;;;;5020643;28;20163;-78
2023/03/14 10:21:21;;;;;;;21.40;3.50;;;;;;;;;;5022647;28;20115;-79
2023/03/14 10:23:47;;;;;;;15.60;2.78;;;;;;;;;;5004847;28;20297;-79
2023/03/14 10:26:15;;;;;;;23.48;3.38;;;;;;;;;;4994993;28;20517;-78
2023/03/14 10:28:46;;;;;;;19.60;3.53;;;;;;;;;;5021851;28;20152;-78
2023/03/14 10:31:12;;;;;;;13.55;2.38;;;;;;;;;;5020989;28;20045;-77
2023/03/14 10:33:39;;;;;;;20.25;3.17;;;;;;;;;;5004334;28;20041;-78
2023/03/14 10:36:15;;;;;;;16.08;2.50;;;;;;;;;;5005751;28;20069;-78
2023/03/14 10:38:41;;;;;;;12.73;2.70;;;;;;;;;;5003284;28;20059;-78
2023/03/14 10:41:16;;;;;;;17.38;3.05;;;;;;;;;;5011914;28;20041;-77
2023/03/14 10:43:42;;;;;;;16.08;2.33;;;;;;;;;;5003150;28;20327;-78
2023/03/14 10:46:19;;;;;;;16.08;2.35;;;;;;;;;;5019896;28;20056;-78
2023/03/14 10:48:46;;;;;;;14.45;3.25;;;;;;;;;;5011760;28;20044;-78
2023/03/14 10:51:18;;;;;;;18.67;2.85;;;;;;;;;;5021447;28;20033;-77
2023/03/14 10:53:49;;;;;;;15.52;1.85;;;;;;;;;;5022785;28;20041;-77
2023/03/14 10:56:17;;;;;;;13.35;2.53;;;;;;;;;;5005614;28;21242;-77
2023/03/14 10:58:44;;;;;;;13.25;2.40;;;;;;;;;;5022014;28;20171;-78
2023/03/14 11:01:17;;;;;;;19.50;3.22;;;;;;;;;;5002246;28;20672;-77
2023/03/14 11:03:53;;;;;;;10.75;1.70;;;;;;;;;;5028245;28;20079;-78
2023/03/14 11:06:30;;;;;;;12.98;1.80;;;;;;;;;;5016758;28;20042;-77
2023/03/14 11:09:02;;;;;;;9.73;1.63;;;;;;;;;;5008960;28;20033;-77
2023/03/14 11:11:30;;;;;;;12.88;1.73;;;;;;;;;;5016259;28;20450;-77
2023/03/14 11:14:15;;;;;;;8.57;1.33;;;;;;;;;;5017779;28;20068;-77
2023/03/14 11:16:44;;;;;;;10.68;1.55;;;;;;;;;;5019393;28;21713;-77
2023/03/14 11:19:17;;;;;;;9.65;1.90;;;;;;;;;;5018795;28;20045;-77
2023/03/14 11:21:58;;;;;;;18.02;2.13;;;;;;;;;;5008529;28;20091;-77
2023/03/14 11:24:39;;;;;;;7.88;1.50;;;;;;;;;;5017422;28;20148;-76
2023/03/14 11:27:24;;;;;;;16.42;2.10;;;;;;;;;;5013747;28;20107;-77
2023/03/14 11:29:50;;;;;;;13.70;1.90;;;;;;;;;;5014093;28;20649;-77
2023/03/14 11:32:36;;;;;;;8.82;1.85;;;;;;;;;;5001431;28;20036;-78
2023/03/14 11:35:04;;;;;;;11.55;1.83;;;;;;;;;;4995521;28;20041;-78
2023/03/14 11:37:34;;;;;;;10.77;2.20;;;;;;;;;;5000114;28;20477;-77
2023/03/14 11:40:27;;;;;;;4.55;1.30;;;;;;;;;;5012943;28;20045;-78
2023/03/14 11:43:00;;;;;;;8.45;1.38;;;;;;;;;;5016133;28;20159;-76
2023/03/14 11:45:31;;;;;;;12.60;1.70;;;;;;;;;;5013216;28;20659;-77
2023/03/14 11:48:05;;;;;;;6.55;1.17;;;;;;;;;;5014577;28;20159;-77
2023/03/14 11:50:34;;;;;;;10.82;1.50;;;;;;;;;;5002526;28;20496;-78
2023/03/14 11:53:22;;;;;;;6.40;1.50;;;;;;;;;;5013345;28;20629;-77
2023/03/14 11:55:51;;;;;;;11.90;2.53;;;;;;;;;;4998313;28;20071;-78
2023/03/14 11:58:28;;;;;;;8.98;1.98;;;;;;;;;;5012722;28;20115;-83
2023/03/14 12:00:55;;;;;;;11.15;2.63;;;;;;;;;;5013203;28;20670;-79
2023/03/14 12:03:42;;;;;;;6.60;1.40;;;;;;;;;;5016185;28;21767;-78
2023/03/14 12:06:22;;;;;;;9.25;1.77;;;;;;;;;;5012287;28;20056;-77
2023/03/14 12:08:58;;;;;;;9.18;1.50;;;;;;;;;;4996369;28;20037;-78
2023/03/14 12:11:29;;;;;;;9.73;1.77;;;;;;;;;;5015081;28;20533;-78
2023/03/14 12:13:56;;;;;;;11.15;1.75;;;;;;;;;;5015057;28;20083;-78
2023/03/14 12:16:25;;;;;;;13.35;2.20;;;;;;;;;;4981843;28;20382;-78
2023/03/14 12:18:52;;;;;;;14.63;2.22;;;;;;;;;;5015777;28;20490;-78
2023/03/14 12:21:18;;;;;;;13.63;2.03;;;;;;;;;;5013823;28;20082;-80
2023/03/14 12:23:46;;;;;;;10.65;2.10;;;;;;;;;;4983910;28;20044;-80
2023/03/14 12:26:12;;;;;;;10.55;2.22;;;;;;;;;;5014453;28;20128;-80
2023/03/14 12:28:39;;;;;;;10.40;2.22;;;;;;;;;;5015582;28;20045;-80
2023/03/14 12:31:24;;;;;;;13.82;2.08;;;;;;;;;;5015944;28;20702;-79
2023/03/14 12:34:03;;;;;;;11.90;2.17;;;;;;;;;;5014695;28;20120;-79
2023/03/14 12:36:50;;;;;;;17.08;2.42;;;;;;;;;;5017823;28;20583;-79
2023/03/14 12:39:25;;;;;;;7.68;1.42;;;;;;;;;;5012137;28;20066;-79
2023/03/14 12:42:10;;;;;;;13.57;2.20;;;;;;;;;;5012508;28;20143;-78
2023/03/14 12:44:44;;;;;;;12.80;2.80;;;;;;;;;;4996667;28;20106;-79
2023/03/14 12:47:19;;;;;;;15.90;2.15;;;;;;;;;;5003298;28;20049;-79
2023/03/14 12:49:47;;;;;;;15.93;1.60;;;;;;;;;;5021325;28;20048;-79
2023/03/14 12:52:16;;;;;;;9.38;1.60;;;;;;;;;;5010375;28;20044;-78
2023/03/14 12:54:48;;;;;;;8.35;1.65;;;;;;;;;;5008658;28;20041;-78
2023/03/14 12:57:17;;;;;;;8.25;1.30;;;;;;;;;;4996767;28;20041;-79
2023/03/14 12:59:48;;;;;;;7.35;1.50;;;;;;;;;;5004524;28;20713;-79
2023/03/14 13:02:19;;;;;;;38.47;3.05;;;;;;;;;;4999374;28;20594;-79
2023/03/14 13:04:54;;;;;;;8.40;1.45;;;;;;;;;;5016225;28;20041;-79
2023/03/14 13:07:46;;;;;;;9.40;1.33;;;;;;;;;;5001811;28;20141;-78
2023/03/14 13:10:21;;;;;;;7.15;1.63;;;;;;;;;;5005399;28;20090;-76
2023/03/14 13:12:51;;;;;;;11.43;1.75;;;;;;;;;;5012036;28;20534;-79
2023/03/14 13:15:23;;;;;;;39.08;3.53;;;;;;;;;;5011622;28;20076;-79
2023/03/14 13:17:50;;;;;;;14.73;2.22;;;;;;;;;;5004740;28;20046;-80
2023/03/14 13:20:34;;;;;;;9.65;2.10;;;;;;;;;;5018405;28;20127;-79
2023/03/14 13:23:00;;;;;;;139.07;13.60;;;;;;;;;;5001322;28;20516;-79
2023/03/14 13:25:30;;;;;;;21.40;2.58;;;;;;;;;;5010962;28;20388;-79
2023/03/14 13:27:56;;;;;;;10.63;1.65;;;;;;;;;;5020556;28;20041;-78
2023/03/14 13:30:22;;;;;;;7.45;1.67;;;;;;;;;;5017938;28;20064;-79
2023/03/14 13:32:49;;;;;;;73.53;7.40;;;;;;;;;;5001451;28;20040;-79
2023/03/14 13:35:16;;;;;;;9.77;1.50;;;;;;;;;;5005692;28;20047;-78
2023/03/14 13:37:43;;;;;;;14.10;1.88;;;;;;;;;;5018567;28;20052;-79
2023/03/14 13:40:19;;;;;;;7.70;1.55;;;;;;;;;;4984264;28;20051;-78
2023/03/14 13:42:45;;;;;;;7.95;1.27;;;;;;;;;;5023533;28;20040;-78
2023/03/14 13:45:13;;;;;;;10.05;1.48;;;;;;;;;;5015552;28;20050;-78
2023/03/14 13:47:42;;;;;;;8.57;1.60;;;;;;;;;;5014448;28;20076;-78
2023/03/14 13:50:18;;;;;;;11.35;1.75;;;;;;;;;;5015209;28;20046;-78
2023/03/14 13:52:46;;;;;;;4.82;1.45;;;;;;;;;;5002579;28;20047;-76
2023/03/14 13:55:19;;;;;;;9.45;1.55;;;;;;;;;;5014450;28;20094;-77
2023/03/14 13:57:50;;;;;;;11.30;1.60;;;;;;;;;;5015416;28;20045;-77
2023/03/14 14:00:21;;;;;;;10.20;2.35;;;;;;;;;;5019601;28;20118;-78
2023/03/14 14:02:48;;;;;;;6.18;1.30;;;;;;;;;;5017139;28;20402;-75
2023/03/14 14:05:14;;;;;;;14.15;2.10;;;;;;;;;;5012306;28;20562;-76
2023/03/14 14:07:41;;;;;;;26.52;4.05;;;;;;;;;;4983503;28;20041;-76
2023/03/14 14:10:10;;;;;;;15.90;2.55;;;;;;;;;;4998297;28;20049;-76
2023/03/14 14:12:41;;;;;;;6.72;2.03;;;;;;;;;;5000803;28;20140;-75
2023/03/14 14:15:10;;;;;;;12.52;2.38;;;;;;;;;;5016411;28;20044;-76
2023/03/14 14:17:42;;;;;;;16.15;1.70;;;;;;;;;;5015598;28;20042;-76
2023/03/14 14:20:14;;;;;;;15.20;2.20;;;;;;;;;;4999345;28;20055;-76
2023/03/14 14:22:40;;;;;;;144.30;15.40;;;;;;;;;;5001251;28;20134;-76
2023/03/14 14:25:06;;;;;;;12.18;2.28;;;;;;;;;;4999015;28;20048;-76
2023/03/14 14:27:41;;;;;;;15.05;2.28;;;;;;;;;;4999797;28;20060;-77
2023/03/14 14:30:25;;;;;;;11.10;2.03;;;;;;;;;;5015880;28;20052;-76
2023/03/14 14:32:52;;;;;;;9.65;1.52;;;;;;;;;;5025846;28;20036;-76
2023/03/14 14:35:25;;;;;;;8.27;1.48;;;;;;;;;;5008453;28;20049;-76
2023/03/14 14:37:52;;;;;;;6.43;1.50;;;;;;;;;;5002211;28;20055;-76
2023/03/14 14:40:23;;;;;;;10.10;1.50;;;;;;;;;;5017060;28;20098;-76